»·PEaware :: WAT306 KSAC-KPDX

WAT306 :: KSAC-KPDX

FLIGHT INFORMATION

Flight Status: Arrived
Operator:
Walker Air Transport
More flights by this operator :: More flights under this callsign
Pilot: Ethan S. (29221)
Aircraft: SOCATA TBM-900
(TBM9)
More flights by this aircraft type
Origin: KSAC Sacramento Executive
United States
Destination: KPDX Portland Intl
United States
More flights between these airports :: More routes between these airports
Route: RBL GALLO TMBRS2
File this flight plan on PilotEdge
Remarks:
Altitude:
(Current/Filed)
30,000ft
Speed:
(Current/Filed)
320kts
Departed: 19-Oct-20 08:11 AM
Arrived: 19-Oct-20 10:07 AM
Distance/Time
Traveled:
427nm/1:55
Distance/Time
To Go:
Arrived

Flight Plot

Page will automatically refresh every two minutes.

Flight plan parsing failed; only flown route is shown


Map Options




Map Legend


Flown Route
Filed Route
Departure Airport
Arrival Airport
Navaid (VOR, NDB)
Fix

Horizontal Profiles

Position Reports

Time Latitude Longitude Heading Altitude Ground
Speed
19-Oct-20 07:55 38.514802 -121.498990 44 19ft 0kts
19-Oct-20 07:55 38.514802 -121.498990 44 19ft 0kts
19-Oct-20 07:57 38.514802 -121.498990 44 20ft 0kts
19-Oct-20 07:57 38.514802 -121.498990 44 20ft 0kts
19-Oct-20 07:59 38.514802 -121.498990 44 20ft 0kts
19-Oct-20 07:59 38.514802 -121.498990 44 20ft 0kts
19-Oct-20 08:00 38.514802 -121.498990 44 20ft 0kts
19-Oct-20 08:01 38.514802 -121.498990 44 20ft 0kts
19-Oct-20 08:02 38.514802 -121.498990 44 20ft 0kts
19-Oct-20 08:03 38.514802 -121.498990 44 20ft 0kts
19-Oct-20 08:04 38.514802 -121.498990 44 20ft 0kts
19-Oct-20 08:05 38.514802 -121.498990 44 20ft 0kts
19-Oct-20 08:06 38.514491 -121.498403 134 19ft 15kts
19-Oct-20 08:07 38.513962 -121.495126 35 19ft 12kts
19-Oct-20 08:08 38.517571 -121.492128 32 21ft 17kts
19-Oct-20 08:09 38.519159 -121.490368 101 23ft 1kts
19-Oct-20 08:10 38.514963 -121.492644 213 20ft 75kts
19-Oct-20 08:11 38.495179 -121.525038 263 1533ft 133kts
19-Oct-20 08:12 38.489615 -121.584389 263 2023ft 197kts
19-Oct-20 08:13 38.483284 -121.657296 263 2009ft 209kts
19-Oct-20 08:14 38.477124 -121.732359 263 2010ft 210kts
19-Oct-20 08:15 38.489525 -121.789939 6 3452ft 149kts
19-Oct-20 08:16 38.527056 -121.776940 13 5851ft 139kts
19-Oct-20 08:17 38.564597 -121.763116 13 8198ft 139kts
19-Oct-20 08:18 38.602814 -121.748989 12 10177ft 142kts
19-Oct-20 08:19 38.641892 -121.760200 343 12646ft 145kts
19-Oct-20 08:20 38.681376 -121.774268 343 15108ft 149kts
19-Oct-20 08:21 38.722276 -121.788526 344 17486ft 156kts
19-Oct-20 08:22 38.764932 -121.802152 344 19868ft 160kts
19-Oct-20 08:23 38.809335 -121.816337 344 21990ft 165kts
19-Oct-20 08:24 38.856723 -121.831490 344 23831ft 178kts
19-Oct-20 08:25 38.904677 -121.846849 344 26149ft 177kts
19-Oct-20 08:26 38.953231 -121.862431 344 28461ft 179kts
19-Oct-20 08:27 39.004191 -121.878816 345 30087ft 214kts
19-Oct-20 08:28 39.071935 -121.900614 345 30059ft 268kts
19-Oct-20 08:29 39.149007 -121.925471 345 30053ft 287kts
19-Oct-20 08:30 39.229315 -121.951418 345 30048ft 290kts
19-Oct-20 08:31 39.309225 -121.977291 345 30053ft 289kts
19-Oct-20 08:32 39.388796 -122.003114 345 30059ft 288kts
19-Oct-20 08:33 39.468433 -122.029025 345 30062ft 288kts
19-Oct-20 08:34 39.547729 -122.054886 345 30063ft 288kts
19-Oct-20 08:35 39.627329 -122.080907 345 30063ft 288kts
19-Oct-20 08:36 39.706560 -122.106871 345 30062ft 288kts
19-Oct-20 08:37 39.785794 -122.132896 345 30061ft 288kts
19-Oct-20 08:38 39.864926 -122.158952 345 30061ft 288kts
19-Oct-20 08:39 39.944072 -122.185072 345 30060ft 288kts
19-Oct-20 08:40 40.023370 -122.211307 345 30060ft 287kts
19-Oct-20 08:41 40.102814 -122.235679 356 30042ft 288kts
19-Oct-20 08:42 40.184574 -122.234238 0 30066ft 289kts
19-Oct-20 08:43 40.266803 -122.232218 0 30063ft 289kts
19-Oct-20 08:44 40.348471 -122.230198 0 30061ft 289kts
19-Oct-20 08:45 40.430411 -122.228168 0 30057ft 289kts
19-Oct-20 08:46 40.512361 -122.226131 0 30054ft 289kts
19-Oct-20 08:47 40.594140 -122.224094 0 30054ft 289kts
19-Oct-20 08:48 40.675901 -122.222054 0 30053ft 288kts
19-Oct-20 08:49 40.757980 -122.220002 359 30071ft 288kts
19-Oct-20 08:50 40.839453 -122.217957 359 30070ft 288kts
19-Oct-20 08:51 40.921064 -122.215905 359 30070ft 287kts
19-Oct-20 08:52 41.002610 -122.213809 359 30069ft 287kts
19-Oct-20 08:53 41.083580 -122.211742 357 30068ft 286kts
19-Oct-20 08:54 41.164881 -122.209726 356 30113ft 285kts
19-Oct-20 08:55 41.245735 -122.207679 356 30205ft 285kts
19-Oct-20 08:56 41.326183 -122.205635 356 30257ft 285kts
19-Oct-20 08:57 41.407273 -122.203568 356 30256ft 287kts
19-Oct-20 08:58 41.488371 -122.201494 356 30255ft 287kts
19-Oct-20 08:59 41.569661 -122.199405 356 30254ft 287kts
19-Oct-20 09:00 41.650872 -122.197316 356 30254ft 287kts
19-Oct-20 09:01 41.731947 -122.195227 357 30253ft 287kts
19-Oct-20 09:02 41.813356 -122.193125 356 30253ft 286kts
19-Oct-20 09:03 41.894245 -122.191026 357 30252ft 286kts
19-Oct-20 09:04 41.975207 -122.188918 356 30251ft 286kts
19-Oct-20 09:05 42.056016 -122.186816 356 30251ft 286kts
19-Oct-20 09:06 42.137185 -122.184693 356 30265ft 286kts
19-Oct-20 09:07 42.217942 -122.182584 357 30277ft 287kts
19-Oct-20 09:08 42.300165 -122.180421 356 30282ft 287kts
19-Oct-20 09:09 42.381653 -122.178278 357 30281ft 287kts
19-Oct-20 09:10 42.463906 -122.176109 357 30281ft 287kts
19-Oct-20 09:11 42.546085 -122.173935 357 30281ft 287kts
19-Oct-20 09:12 42.628273 -122.171752 357 30280ft 287kts
19-Oct-20 09:13 42.710397 -122.169568 356 30280ft 287kts
19-Oct-20 09:14 42.792120 -122.167392 357 30280ft 287kts
19-Oct-20 09:15 42.873750 -122.165207 356 30279ft 286kts
19-Oct-20 09:16 42.952589 -122.180221 337 30270ft 277kts
19-Oct-20 09:17 43.026421 -122.214707 335 30252ft 270kts
19-Oct-20 09:18 43.098542 -122.248676 334 30246ft 264kts
19-Oct-20 09:19 43.169348 -122.282057 334 30256ft 263kts
19-Oct-20 09:20 43.239797 -122.315340 334 30258ft 263kts
19-Oct-20 09:21 43.310211 -122.348700 334 30266ft 262kts
19-Oct-20 09:22 43.380390 -122.382019 334 30272ft 262kts
19-Oct-20 09:23 43.450685 -122.415488 334 30271ft 262kts
19-Oct-20 09:24 43.520864 -122.449014 334 30269ft 262kts
19-Oct-20 09:25 43.591528 -122.482878 334 30273ft 262kts
19-Oct-20 09:26 43.661987 -122.516710 334 30275ft 262kts
19-Oct-20 09:27 43.732366 -122.550589 334 30276ft 262kts
19-Oct-20 09:28 43.802606 -122.584492 334 30275ft 261kts
19-Oct-20 09:29 43.872438 -122.618283 334 30274ft 261kts
19-Oct-20 09:30 43.942678 -122.652352 334 30276ft 261kts
19-Oct-20 09:31 44.012928 -122.686509 334 30281ft 262kts
19-Oct-20 09:33 44.083362 -122.720847 334 30280ft 262kts
19-Oct-20 09:34 44.153995 -122.751846 347 30274ft 272kts
19-Oct-20 09:35 44.232048 -122.745068 354 30288ft 278kts
19-Oct-20 09:36 44.308413 -122.737564 354 30288ft 278kts
19-Oct-20 09:37 44.387041 -122.729792 354 30283ft 278kts
19-Oct-20 09:38 44.465873 -122.721991 354 30272ft 279kts
19-Oct-20 09:39 44.542491 -122.714343 354 27536ft 245kts
19-Oct-20 09:40 44.607010 -122.707936 353 24724ft 215kts
19-Oct-20 09:41 44.665391 -122.702117 354 21945ft 201kts
19-Oct-20 09:42 44.721694 -122.696486 354 19152ft 195kts
19-Oct-20 09:43 44.762145 -122.692205 349 18975ft 122kts
19-Oct-20 09:44 44.815886 -122.687132 356 18854ft 235kts
19-Oct-20 09:45 44.891352 -122.679462 357 16316ft 280kts
19-Oct-20 09:46 44.971152 -122.671281 358 13892ft 268kts
19-Oct-20 09:47 45.039098 -122.664213 354 12882ft 203kts
19-Oct-20 09:48 45.091423 -122.658896 351 12891ft 173kts
19-Oct-20 09:49 45.143755 -122.653865 352 11513ft 211kts
19-Oct-20 09:50 45.205538 -122.647543 356 9263ft 226kts
19-Oct-20 09:51 45.263689 -122.650787 335 8007ft 179kts
19-Oct-20 09:51 45.301161 -122.671301 334 8006ft 167kts
19-Oct-20 09:53 45.352014 -122.699135 330 8002ft 167kts
19-Oct-20 09:53 45.389246 -122.719560 328 7993ft 171kts
19-Oct-20 09:55 45.451597 -122.753833 328 6982ft 200kts
19-Oct-20 09:55 45.494716 -122.777697 329 6372ft 218kts
19-Oct-20 09:56 45.554641 -122.810651 332 4978ft 226kts
19-Oct-20 09:57 45.597306 -122.861978 315 4795ft 207kts
19-Oct-20 09:58 45.650649 -122.879952 25 3915ft 198kts
19-Oct-20 09:59 45.670982 -122.823978 84 2969ft 154kts
19-Oct-20 10:00 45.662997 -122.768239 129 2745ft 154kts
19-Oct-20 10:01 45.640657 -122.713289 122 1905ft 131kts
19-Oct-20 10:02 45.625811 -122.675297 122 1295ft 92kts
19-Oct-20 10:03 45.614125 -122.645149 122 867ft 83kts
19-Oct-20 10:04 45.601940 -122.613961 121 366ft 90kts
19-Oct-20 10:05 45.591543 -122.587309 118 20ft 41kts
19-Oct-20 10:06 45.587343 -122.579743 118 19ft 28kts
19-Oct-20 10:07 45.585201 -122.577369 311 19ft 4kts
19-Oct-20 10:08 45.585608 -122.578063 27 19ft 0kts
19-Oct-20 10:09 45.585608 -122.578063 27 19ft 0kts
19-Oct-20 10:10 45.585608 -122.578063 27 19ft 0kts
19-Oct-20 10:11 45.585609 -122.578063 27 20ft 0kts
19-Oct-20 10:12 45.585609 -122.578063 27 20ft 0kts
19-Oct-20 10:13 45.585609 -122.578063 27 20ft 0kts
19-Oct-20 10:14 45.585609 -122.578063 27 20ft 0kts
19-Oct-20 10:15 45.585609 -122.578063 27 20ft 0kts
19-Oct-20 10:16 45.585609 -122.578063 27 20ft 0kts
19-Oct-20 10:17 45.585609 -122.578063 27 20ft 0kts
19-Oct-20 10:18 45.585609 -122.578063 27 20ft 0kts

Navigation Log

Ident Type
Flight plan parsing failed, navigation log unavailable